OJC weather

Johnson County Executive Airport
Olathe, Kansas, United States

Public forecast

Using degrees Fahrenheit for public forecast. Weather courtesy of forecast.io.

Current aviation weather report (METAR) for Johnson County Executive Airport

Retrieved 2019/10/16 22:53 UTC (53 minutes ago):

KOJC 162253Z VRB04KT 10SM CLR 12/03 A3012 RMK AO2 SLP202 T01220033

Closest aviation forecast (TAF) to Johnson County Executive Airport

Closest forecast is New Century Aircenter Airport, 7.2 nm (13.4 km) W. Retrieved 2019/10/16 18:22 UTC (5 hours ago):

TAF KIXD 161720Z 1618/1718 32011KT P6SM BKN025 FM161900 31008KT P6SM SKC FM170100 18005KT P6SM SKC